Galax, VA

4:30 AM EDT on June 24, 2017 (GMT -0400)
Twin County

Weather History for KHLX - February, 2012

Change the Weather History Date:

Saturday, February 11, 2012

  Actual Average (KBLF) Record (KBLF)
Temperature  
Mean Temperature 26 °F -  
Max Temperature 37 °F 42 °F 69 °F (1965)
Min Temperature 15 °F 25 °F 0 °F (1968)
Degree Days  
Heating Degree Days 39    
Moisture  
Dew Point 19 °F    
Average Humidity 72    
Maximum Humidity 93    
Minimum Humidity 46    
Precipitation  
Precipitation 0.00 in - - ()
Sea Level Pressure  
Sea Level Pressure 29.83 in    
Wind  
Wind Speed 18 mph (WNW)    
Max Wind Speed 36 mph    
Max Gust Speed 51 mph    
Visibility 9 miles    
Events Snow    
Averages and records for this station are not official NWS values.
T = Trace of Precipitation, MM = Missing Value Source: NWS Daily Summary

Daily Weather History Graph

Daily Weather History Graph

Search for Another Location

Airport or City:

Trip Planner

Search our weather history database for the weather conditions in past years. The results will help you decide how hot, cold, wet, or windy it might be!

Date:

Astronomy

Feb. 11, 2012 Rise Set
Actual Time 7:16 AM EST 5:59 PM EST
Civil Twilight 6:49 AM EST 6:25 PM EST
Nautical Twilight 6:19 AM EST 6:56 PM EST
Astronomical Twilight 5:49 AM EST 7:26 PM EST
Moon 10:35 PM EST (2/11) 9:06 AM EST (2/11)
Length of Visible Light 11h 35m
Length of Day
10h 42m
Waning Gibbous, 82% of the Moon is Illuminated
Feb 11
Waning Gibbous
Feb 14
Last Quarter
Feb 21
New
Feb 29
First Quarter
Mar 8
Full

Hourly Weather History & Observations

Time (EST) Temp. Windchill Dew Point Humidity Pressure Visibility Wind Dir Wind Speed Gust Speed Precip Events Conditions
12:15 AM 37.4 °F 29.8 °F 33.8 °F 87% 29.86 in 10.0 mi West 11.5 mph 16.1 mph N/A Snow Light Snow
12:35 AM 37.4 °F 30.3 °F 33.8 °F 87% 29.85 in 10.0 mi WNW 10.4 mph - N/A   Mostly Cloudy
12:55 AM 37.4 °F 30.3 °F 33.8 °F 87% 29.84 in 10.0 mi West 10.4 mph - N/A   Scattered Clouds
1:15 AM 37.4 °F 29.3 °F 33.8 °F 87% 29.83 in 10.0 mi WNW 12.7 mph 20.7 mph N/A   Mostly Cloudy
1:35 AM 35.6 °F 27.1 °F 33.8 °F 93% 29.83 in 10.0 mi WNW 12.7 mph 18.4 mph N/A   Mostly Cloudy
1:55 AM 35.6 °F 26.6 °F 33.8 °F 93% 29.82 in 10.0 mi West 13.8 mph 23.0 mph N/A   Overcast
2:15 AM 35.6 °F 25.9 °F 33.8 °F 93% 29.82 in 10.0 mi West 16.1 mph 24.2 mph N/A   Overcast
2:35 AM 35.6 °F 26.6 °F 32.0 °F 87% 29.81 in 10.0 mi West 13.8 mph 17.3 mph N/A   Overcast
2:55 AM 35.6 °F 27.5 °F 32.0 °F 87% 29.80 in 10.0 mi West 11.5 mph 16.1 mph N/A   Overcast
3:15 AM 35.6 °F 28.0 °F 32.0 °F 87% 29.79 in 10.0 mi West 10.4 mph 18.4 mph N/A   Overcast
3:35 AM 35.6 °F 26.6 °F 32.0 °F 87% 29.78 in 10.0 mi West 13.8 mph 19.6 mph N/A   Overcast
3:55 AM 35.6 °F 28.0 °F 32.0 °F 87% 29.77 in 10.0 mi West 10.4 mph - N/A   Overcast
4:15 AM 33.8 °F 24.3 °F 32.0 °F 93% 29.76 in 10.0 mi West 13.8 mph - N/A   Overcast
4:35 AM 33.8 °F 23.9 °F 30.2 °F 87% 29.74 in 10.0 mi WNW 15.0 mph 20.7 mph N/A   Overcast
4:55 AM 33.8 °F 25.3 °F 32.0 °F 93% 29.75 in 10.0 mi WNW 11.5 mph 19.6 mph N/A   Overcast
5:15 AM 33.8 °F 24.8 °F 30.2 °F 87% 29.75 in 10.0 mi WNW 12.7 mph 16.1 mph N/A   Overcast
5:35 AM 33.8 °F 25.8 °F 30.2 °F 87% 29.75 in 10.0 mi WNW 10.4 mph - N/A   Overcast
5:55 AM 33.8 °F 24.8 °F 30.2 °F 87% 29.75 in 10.0 mi WNW 12.7 mph - N/A   Overcast
6:15 AM 33.8 °F 25.8 °F 30.2 °F 87% 29.75 in 10.0 mi NW 10.4 mph 17.3 mph N/A   Overcast
6:35 AM 33.8 °F 25.3 °F 30.2 °F 87% 29.76 in 10.0 mi WNW 11.5 mph 17.3 mph N/A Snow Light Snow
6:55 AM 33.8 °F 24.3 °F 30.2 °F 87% 29.76 in 10.0 mi WNW 13.8 mph 21.9 mph N/A Snow Light Snow
7:15 AM 33.8 °F 23.9 °F 30.2 °F 87% 29.77 in 10.0 mi West 15.0 mph 19.6 mph N/A Snow Light Snow
7:35 AM 33.8 °F 23.2 °F 28.4 °F 81% 29.77 in 10.0 mi WNW 17.3 mph 23.0 mph N/A Snow Light Snow
7:55 AM 33.8 °F 23.9 °F 28.4 °F 81% 29.78 in 10.0 mi WNW 15.0 mph 24.2 mph N/A Snow Light Snow
8:15 AM 33.8 °F 23.5 °F 28.4 °F 81% 29.79 in 5.0 mi WNW 16.1 mph 26.5 mph N/A Snow Light Snow
8:35 AM 33.8 °F 23.9 °F 28.4 °F 81% 29.79 in 5.0 mi West 15.0 mph 25.3 mph N/A Snow Light Snow
8:55 AM 32.0 °F 22.5 °F 28.4 °F 87% 29.79 in 10.0 mi WNW 12.7 mph 21.9 mph N/A Snow Light Snow
9:15 AM 32.0 °F 23.0 °F 28.4 °F 87% 29.79 in 3.0 mi WNW 11.5 mph 19.6 mph N/A Snow Light Snow
9:35 AM 32.0 °F 23.6 °F 26.6 °F 80% 29.79 in 7.0 mi West 10.4 mph 16.1 mph N/A Snow Light Snow
9:55 AM 33.8 °F 23.5 °F 26.6 °F 75% 29.78 in 10.0 mi WNW 16.1 mph 24.2 mph N/A   Mostly Cloudy
10:15 AM 33.8 °F 21.0 °F 24.8 °F 70% 29.78 in 10.0 mi WNW 25.3 mph 32.2 mph N/A   Scattered Clouds
10:35 AM 32.0 °F 17.6 °F 21.2 °F 64% 29.78 in 10.0 mi WNW 29.9 mph 34.5 mph N/A   Mostly Cloudy
10:55 AM 32.0 °F 19.5 °F 21.2 °F 64% 29.78 in 10.0 mi NW 21.9 mph 32.2 mph N/A   Mostly Cloudy
11:15 AM 28.4 °F 13.8 °F 21.2 °F 74% 29.79 in 10.0 mi NW 25.3 mph 38.0 mph N/A   Mostly Cloudy
11:35 AM 28.4 °F 13.8 °F 19.4 °F 69% 29.79 in 10.0 mi WNW 25.3 mph 33.4 mph N/A   Overcast
11:55 AM 28.4 °F 13.8 °F 17.6 °F 64% 29.78 in 10.0 mi WNW 25.3 mph 35.7 mph N/A   Scattered Clouds
12:15 PM 28.4 °F 12.3 °F 14.0 °F 55% 29.79 in 10.0 mi WNW 32.2 mph 43.7 mph N/A   Scattered Clouds
12:35 PM 26.6 °F 10.6 °F 12.2 °F 55% 29.79 in 10.0 mi NW 28.8 mph 35.7 mph N/A   Scattered Clouds
12:55 PM 24.8 °F 7.6 °F 12.2 °F 59% 29.80 in 1.0 mi WNW 31.1 mph 36.8 mph N/A Snow Light Snow
1:15 PM 24.8 °F 8.4 °F 12.2 °F 59% 29.81 in 10.0 mi WNW 27.6 mph 33.4 mph N/A   Scattered Clouds
1:35 PM 24.8 °F 7.9 °F 6.8 °F 46% 29.79 in 10.0 mi NW 29.9 mph 47.2 mph N/A   Scattered Clouds
1:55 PM 24.8 °F 7.6 °F 6.8 °F 46% 29.81 in 10.0 mi NW 31.1 mph 46.0 mph N/A   Clear
2:15 PM 24.8 °F 6.6 °F 6.8 °F 46% 29.82 in 10.0 mi NW 35.7 mph 46.0 mph N/A   Clear
2:35 PM 23.0 °F 6.0 °F 10.4 °F 59% 29.83 in 10.0 mi NW 27.6 mph 39.1 mph N/A   Scattered Clouds
2:55 PM 23.0 °F 5.4 °F 10.4 °F 59% 29.84 in 10.0 mi NW 29.9 mph 38.0 mph N/A   Scattered Clouds
3:15 PM 21.2 °F 3.5 °F 8.6 °F 58% 29.84 in 10.0 mi NW 27.6 mph 35.7 mph N/A   Clear
3:35 PM 23.0 °F 6.6 °F 8.6 °F 54% 29.85 in 10.0 mi WNW 25.3 mph 38.0 mph N/A   Mostly Cloudy
3:55 PM 21.2 °F 3.0 °F 12.2 °F 68% 29.86 in 10.0 mi WNW 29.9 mph 38.0 mph N/A   Mostly Cloudy
4:15 PM 19.4 °F 0.2 °F 10.4 °F 68% 29.87 in 7.0 mi NW 31.1 mph 39.1 mph N/A Snow Light Snow
4:35 PM 19.4 °F 1.8 °F 6.8 °F 58% 29.87 in 10.0 mi NW 25.3 mph 50.6 mph N/A   Scattered Clouds
4:55 PM 19.4 °F 0.5 °F 5.0 °F 54% 29.88 in 10.0 mi WNW 29.9 mph 43.7 mph N/A   Scattered Clouds
5:15 PM 17.6 °F -2.2 °F 8.6 °F 68% 29.89 in 7.0 mi NW 31.1 mph 42.6 mph N/A   Mostly Cloudy
5:35 PM 17.6 °F 0.1 °F 10.4 °F 73% 29.90 in 5.0 mi WNW 23.0 mph 39.1 mph N/A Snow Light Snow
5:55 PM 17.6 °F 0.9 °F 10.4 °F 73% 29.91 in 5.0 mi WNW 20.7 mph 33.4 mph N/A Snow Light Snow
6:15 PM 15.8 °F -5.5 °F 5.0 °F 62% 29.91 in 10.0 mi WNW 34.5 mph 47.2 mph N/A   Scattered Clouds
6:35 PM 15.8 °F -5.0 °F 3.2 °F 58% 29.91 in 10.0 mi NW 32.2 mph 42.6 mph N/A   Scattered Clouds
6:55 PM 15.8 °F -5.0 °F 3.2 °F 58% 29.92 in 10.0 mi NW 32.2 mph 46.0 mph N/A   Clear
7:15 PM 15.8 °F -2.3 °F 3.2 °F 58% 29.93 in 10.0 mi NW 23.0 mph 35.7 mph N/A   Scattered Clouds
7:35 PM 15.8 °F -2.7 °F 5.0 °F 62% 29.94 in 10.0 mi NW 24.2 mph 40.3 mph N/A   Unknown
7:55 PM 15.8 °F -5.5 °F 3.2 °F 58% 29.95 in 10.0 mi WNW 34.5 mph 39.1 mph N/A   Scattered Clouds
8:15 PM 15.8 °F -3.4 °F 3.2 °F 58% 29.94 in 10.0 mi NW 26.5 mph 36.8 mph N/A   Scattered Clouds
8:35 PM 15.8 °F -4.4 °F 1.4 °F 53% 29.95 in 10.0 mi WNW 29.9 mph 42.6 mph N/A   Scattered Clouds
8:55 PM 15.8 °F -5.2 °F 5.0 °F 62% 29.95 in 7.0 mi NW 33.4 mph 44.9 mph N/A Snow Light Snow
9:15 PM 15.8 °F -2.3 °F 1.4 °F 53% 29.95 in 10.0 mi NW 23.0 mph 43.7 mph N/A   Scattered Clouds
9:35 PM 15.8 °F -4.7 °F 1.4 °F 53% 29.95 in 10.0 mi NW 31.1 mph 46.0 mph N/A   Clear
9:55 PM 15.8 °F -5.5 °F 1.4 °F 53% 29.95 in 10.0 mi NW 34.5 mph 48.3 mph N/A   Clear
10:15 PM 15.8 °F -4.7 °F 1.4 °F 53% 29.96 in 10.0 mi NW 31.1 mph 50.6 mph N/A   Clear
10:35 PM 15.8 °F -5.5 °F 1.4 °F 53% 29.97 in 10.0 mi NW 34.5 mph 46.0 mph N/A   Unknown
10:55 PM 15.8 °F -3.4 °F 1.4 °F 53% 29.98 in 10.0 mi NW 26.5 mph 46.0 mph N/A   Unknown
11:35 PM 15.8 °F -3.1 °F 3.2 °F 58% 29.99 in 10.0 mi NW 25.3 mph 38.0 mph N/A   Scattered Clouds